PWSweather.com
Personal Weather Stations
Station Observations
CW4438
Little Flock, AR 72756

Little Flock, AR 72756

Lat: 36.39, Lon: -94.14

Elevation: 1278

Station Type: Davis/Vantage Pro

www.taengle.net/weather

High Low Average
Temperature 69.0°F20.6°C 32.8°F0.4°C 50.4°F10.2°C
Dew Point 33.7°F0.9°C 20.9°F-6.2°C 27.4°F-2.6°C
Winds 10.0 mph 16.1 kmh Calm Calm 2.0 mph SW3.2 kmh SW
Wind Gusts 4.0 mph6.4 kmh 4.0 mph6.4 kmh 4.0 mph6.4 kmh
Humidity 71% 23% 44%
Pressure 30.33 in1027.1 mb 30.15 in1021.0 mb -
Precipitation 0.00 in0.0 mm - -
Hour Temp Dew Point Humidity Winds Wind Gusts Pressure Precip Precip Rate Daily Precip Total
12:20 AM 54.5°F12.5°C 31.3°F-0.4°C 41% 3.0 mph N4.8 kmh N 4.0 mph6.4 kmh 30.11 in1019.6 mb 0.00 in0.0 mm 0.00 in/hr0.0 mm/hr 0.00 in0.0 mm
12:50 AM 51.9°F11.1°C 32.3°F0.2°C 47% 5.0 mph N8.0 kmh N 4.0 mph6.4 kmh 30.12 in1020.0 mb 0.00 in0.0 mm 0.00 in/hr0.0 mm/hr 0.00 in0.0 mm
01:20 AM 48.1°F8.9°C 32.3°F0.2°C 54% 10.0 mph N16.1 kmh N 4.0 mph6.4 kmh 30.15 in1021.0 mb 0.00 in0.0 mm 0.00 in/hr0.0 mm/hr 0.00 in0.0 mm
01:50 AM 46.1°F7.8°C 30.9°F-0.6°C 55% Calm Calm 4.0 mph6.4 kmh 30.17 in1021.7 mb 0.00 in0.0 mm 0.00 in/hr0.0 mm/hr 0.00 in0.0 mm
02:20 AM 44.6°F7.0°C 30.3°F-0.9°C 57% Calm Calm 4.0 mph6.4 kmh 30.18 in1022.0 mb 0.00 in0.0 mm 0.00 in/hr0.0 mm/hr 0.00 in0.0 mm
02:50 AM 43.1°F6.2°C 29.8°F-1.2°C 59% Calm Calm 4.0 mph6.4 kmh 30.20 in1022.7 mb 0.00 in0.0 mm 0.00 in/hr0.0 mm/hr 0.00 in0.0 mm
03:20 AM 41.4°F5.2°C 29.4°F-1.4°C 62% Calm Calm 4.0 mph6.4 kmh 30.20 in1022.7 mb 0.00 in0.0 mm 0.00 in/hr0.0 mm/hr 0.00 in0.0 mm
03:50 AM 41.1°F5.1°C 28.7°F-1.8°C 61% Calm Calm 4.0 mph6.4 kmh 30.22 in1023.4 mb 0.00 in0.0 mm 0.00 in/hr0.0 mm/hr 0.00 in0.0 mm
04:20 AM 40.4°F4.7°C 26.4°F-3.1°C 57% 1.0 mph N1.6 kmh N 4.0 mph6.4 kmh 30.23 in1023.7 mb 0.00 in0.0 mm 0.00 in/hr0.0 mm/hr 0.00 in0.0 mm
04:50 AM 39.2°F4.0°C 25.7°F-3.5°C 58% Calm Calm 4.0 mph6.4 kmh 30.23 in1023.7 mb 0.00 in0.0 mm 0.00 in/hr0.0 mm/hr 0.00 in0.0 mm
05:20 AM 38.5°F3.6°C 25.0°F-3.9°C 58% 2.0 mph N3.2 kmh N 4.0 mph6.4 kmh 30.23 in1023.7 mb 0.00 in0.0 mm 0.00 in/hr0.0 mm/hr 0.00 in0.0 mm
05:50 AM 37.7°F3.2°C 24.7°F-4.1°C 59% Calm Calm 4.0 mph6.4 kmh 30.25 in1024.4 mb 0.00 in0.0 mm 0.00 in/hr0.0 mm/hr 0.00 in0.0 mm
06:50 AM 35.6°F2.0°C 24.3°F-4.3°C 63% Calm Calm 4.0 mph6.4 kmh 30.29 in1025.7 mb 0.00 in0.0 mm 0.00 in/hr0.0 mm/hr 0.00 in0.0 mm
07:20 AM 34.0°F1.1°C 23.9°F-4.5°C 66% Calm Calm 4.0 mph6.4 kmh 30.31 in1026.4 mb 0.00 in0.0 mm 0.00 in/hr0.0 mm/hr 0.00 in0.0 mm
07:50 AM 32.8°F0.4°C 24.1°F-4.4°C 70% Calm Calm 4.0 mph6.4 kmh 30.32 in1026.8 mb 0.00 in0.0 mm 0.00 in/hr0.0 mm/hr 0.00 in0.0 mm
08:20 AM 33.1°F0.6°C 24.7°F-4.1°C 71% Calm Calm 4.0 mph6.4 kmh 30.32 in1026.8 mb 0.00 in0.0 mm 0.00 in/hr0.0 mm/hr 0.00 in0.0 mm
08:40 AM 35.7°F2.1°C 25.8°F-3.4°C 67% Calm Calm 4.0 mph6.4 kmh 30.33 in1027.1 mb 0.00 in0.0 mm 0.00 in/hr0.0 mm/hr 0.00 in0.0 mm
09:10 AM 42.4°F5.8°C 27.8°F-2.3°C 56% Calm Calm 4.0 mph6.4 kmh 30.32 in1026.8 mb 0.00 in0.0 mm 0.00 in/hr0.0 mm/hr 0.00 in0.0 mm
09:40 AM 44.6°F7.0°C 26.1°F-3.3°C 48% 10.0 mph E16.1 kmh E 4.0 mph6.4 kmh 30.32 in1026.8 mb 0.00 in0.0 mm 0.00 in/hr0.0 mm/hr 0.00 in0.0 mm
10:10 AM 46.1°F7.8°C 26.0°F-3.3°C 45% Calm Calm 4.0 mph6.4 kmh 30.32 in1026.8 mb 0.00 in0.0 mm 0.00 in/hr0.0 mm/hr 0.00 in0.0 mm
10:40 AM 47.4°F8.6°C 26.6°F-3.0°C 44% 2.0 mph ESE3.2 kmh ESE 4.0 mph6.4 kmh 30.33 in1027.1 mb 0.00 in0.0 mm 0.00 in/hr0.0 mm/hr 0.00 in0.0 mm
11:10 AM 49.4°F9.7°C 23.6°F-4.7°C 36% 6.0 mph SSE9.7 kmh SSE 4.0 mph6.4 kmh 30.33 in1027.1 mb 0.00 in0.0 mm 0.00 in/hr0.0 mm/hr 0.00 in0.0 mm
11:40 AM 51.9°F11.1°C 22.2°F-5.4°C 31% Calm Calm 4.0 mph6.4 kmh 30.32 in1026.8 mb 0.00 in0.0 mm 0.00 in/hr0.0 mm/hr 0.00 in0.0 mm
12:10 PM 54.1°F12.3°C 20.9°F-6.2°C 27% 4.0 mph SE6.4 kmh SE 4.0 mph6.4 kmh 30.31 in1026.4 mb 0.00 in0.0 mm 0.00 in/hr0.0 mm/hr 0.00 in0.0 mm
12:40 PM 56.4°F13.6°C 26.2°F-3.2°C 31% 3.0 mph SE4.8 kmh SE 4.0 mph6.4 kmh 30.32 in1026.8 mb 0.00 in0.0 mm 0.00 in/hr0.0 mm/hr 0.00 in0.0 mm
01:10 PM 58.3°F14.6°C 27.0°F-2.8°C 30% Calm Calm 4.0 mph6.4 kmh 30.30 in1026.1 mb 0.00 in0.0 mm 0.00 in/hr0.0 mm/hr 0.00 in0.0 mm
01:40 PM 60.9°F16.1°C 25.8°F-3.4°C 26% Calm Calm 4.0 mph6.4 kmh 30.28 in1025.4 mb 0.00 in0.0 mm 0.00 in/hr0.0 mm/hr 0.00 in0.0 mm
02:10 PM 62.4°F16.9°C 26.1°F-3.3°C 25% 5.0 mph SSE8.0 kmh SSE 4.0 mph6.4 kmh 30.26 in1024.7 mb 0.00 in0.0 mm 0.00 in/hr0.0 mm/hr 0.00 in0.0 mm
02:40 PM 63.2°F17.3°C 24.8°F-4.0°C 23% 5.0 mph ESE8.0 kmh ESE 4.0 mph6.4 kmh 30.24 in1024.0 mb 0.00 in0.0 mm 0.00 in/hr0.0 mm/hr 0.00 in0.0 mm
03:10 PM 65.4°F18.6°C 27.7°F-2.4°C 24% 3.0 mph SSE4.8 kmh SSE 4.0 mph6.4 kmh 30.22 in1023.4 mb 0.00 in0.0 mm 0.00 in/hr0.0 mm/hr 0.00 in0.0 mm
03:40 PM 67.3°F19.6°C 29.3°F-1.5°C 24% 7.0 mph SSE11.3 kmh SSE 4.0 mph6.4 kmh 30.20 in1022.7 mb 0.00 in0.0 mm 0.00 in/hr0.0 mm/hr 0.00 in0.0 mm
04:10 PM 69.0°F20.6°C 30.7°F-0.7°C 24% Calm Calm 4.0 mph6.4 kmh 30.18 in1022.0 mb 0.00 in0.0 mm 0.00 in/hr0.0 mm/hr 0.00 in0.0 mm
04:30 PM 68.2°F20.1°C 31.1°F-0.5°C 25% 6.0 mph WSW9.7 kmh WSW 4.0 mph6.4 kmh 30.18 in1022.0 mb 0.00 in0.0 mm 0.00 in/hr0.0 mm/hr 0.00 in0.0 mm
05:00 PM 67.8°F19.9°C 32.6°F0.3°C 27% 7.0 mph SE11.3 kmh SE 4.0 mph6.4 kmh 30.18 in1022.0 mb 0.00 in0.0 mm 0.00 in/hr0.0 mm/hr 0.00 in0.0 mm
05:30 PM 67.0°F19.4°C 31.0°F-0.6°C 26% Calm Calm 4.0 mph6.4 kmh 30.17 in1021.7 mb 0.00 in0.0 mm 0.00 in/hr0.0 mm/hr 0.00 in0.0 mm
06:00 PM 66.2°F19.0°C 32.2°F0.1°C 28% 2.0 mph S3.2 kmh S 4.0 mph6.4 kmh 30.17 in1021.7 mb 0.00 in0.0 mm 0.00 in/hr0.0 mm/hr 0.00 in0.0 mm
06:30 PM 65.1°F18.4°C 33.7°F0.9°C 31% Calm Calm 4.0 mph6.4 kmh 30.16 in1021.3 mb 0.00 in0.0 mm 0.00 in/hr0.0 mm/hr 0.00 in0.0 mm
07:00 PM 63.4°F17.4°C 33.1°F0.6°C 32% Calm Calm 4.0 mph6.4 kmh 30.16 in1021.3 mb 0.00 in0.0 mm 0.00 in/hr0.0 mm/hr 0.00 in0.0 mm
07:30 PM 61.4°F16.3°C 32.8°F0.4°C 34% Calm Calm 4.0 mph6.4 kmh 30.17 in1021.7 mb 0.00 in0.0 mm 0.00 in/hr0.0 mm/hr 0.00 in0.0 mm
08:00 PM 60.0°F15.6°C 33.0°F0.6°C 36% Calm Calm 4.0 mph6.4 kmh 30.17 in1021.7 mb 0.00 in0.0 mm 0.00 in/hr0.0 mm/hr 0.00 in0.0 mm
08:30 PM 59.4°F15.2°C 30.3°F-0.9°C 33% Calm Calm 4.0 mph6.4 kmh 30.16 in1021.3 mb 0.00 in0.0 mm 0.00 in/hr0.0 mm/hr 0.00 in0.0 mm
09:00 PM 58.5°F14.7°C 30.3°F-0.9°C 34% 4.0 mph SE6.4 kmh SE 4.0 mph6.4 kmh 30.16 in1021.3 mb 0.00 in0.0 mm 0.00 in/hr0.0 mm/hr 0.00 in0.0 mm
09:30 PM 57.7°F14.3°C 30.3°F-0.9°C 35% 1.0 mph SSE1.6 kmh SSE 4.0 mph6.4 kmh 30.15 in1021.0 mb 0.00 in0.0 mm 0.00 in/hr0.0 mm/hr 0.00 in0.0 mm
10:00 PM 56.9°F13.8°C 30.9°F-0.6°C 37% 5.0 mph S8.0 kmh S 4.0 mph6.4 kmh 30.16 in1021.3 mb 0.00 in0.0 mm 0.00 in/hr0.0 mm/hr 0.00 in0.0 mm
10:30 PM 56.4°F13.6°C 31.1°F-0.5°C 38% Calm Calm 4.0 mph6.4 kmh 30.17 in1021.7 mb 0.00 in0.0 mm 0.00 in/hr0.0 mm/hr 0.00 in0.0 mm
11:00 PM 55.7°F13.2°C 31.8°F-0.1°C 40% 3.0 mph S4.8 kmh S 4.0 mph6.4 kmh 30.16 in1021.3 mb 0.00 in0.0 mm 0.00 in/hr0.0 mm/hr 0.00 in0.0 mm
11:30 PM 55.6°F13.1°C 32.3°F0.2°C 41% 3.0 mph SSE4.8 kmh SSE 4.0 mph6.4 kmh 30.15 in1021.0 mb 0.00 in0.0 mm 0.00 in/hr0.0 mm/hr 0.00 in0.0 mm